logo tempoitalia

Diretta Meteo Praha-Ruzyne, Repubblica Cecamercoledì 15 luglio ore 07:30

Mappa
Sereno 17 °C Sereno 24 Ore: T.min 11 T.max 25
Ponente Nord Km/h 1.8 Punto di rugiada: 10 °C Umidità: 63% Visibilità: 10 Km
Il sole sorge alle: 05:09 Il sole tramonta alle: 21:08
15 Luglio 2020 07:30 tempo osservato: Sereno Sereno 17 63 1012 vento: Nord N 1.8
15 Luglio 2020 07:00 tempo osservato: Sereno Sereno 15 72 1012 vento: Nord N 5.5
15 Luglio 2020 06:00 tempo osservato: Sereno Sereno 12 76 1012 vento: Nord N 3.7
15 Luglio 2020 05:30 tempo osservato: Sereno Sereno 12 76 1012 vento: Nord N 3.7
15 Luglio 2020 05:00 tempo osservato: Sereno Sereno 13 71 1012 vento: Nord N 5.5
15 Luglio 2020 04:30 tempo osservato: Sereno Sereno 11 81 1012 vento: Nord S 11.1
15 Luglio 2020 03:30 tempo osservato: Sereno Sereno 14 67 1012 vento: Nord S 11.1
15 Luglio 2020 03:00 tempo osservato: Sereno Sereno 13 76 1013 vento: Nord S 11.1
15 Luglio 2020 02:30 tempo osservato: Sereno Sereno 14 71 1013 vento: Nord S 13
15 Luglio 2020 01:30 tempo osservato: Sereno Sereno 15 62 1013 vento: Nord S 11.1
15 Luglio 2020 01:00 tempo osservato: Sereno Sereno 15 62 1013 vento: Nord S 11.1
15 Luglio 2020 00:30 tempo osservato: Sereno Sereno 14 67 1013 vento: Nord S 11.1
14 Luglio 2020 23:30 tempo osservato: Sereno Sereno 16 58 1013 vento: Nord S/SE 11.1
14 Luglio 2020 23:00 tempo osservato: Sereno Sereno 16 58 1013 vento: Nord S/SE 9.3
14 Luglio 2020 22:30 tempo osservato: Sereno Sereno 17 55 1013 vento: Nord S/SE 9.3
14 Luglio 2020 22:00 tempo osservato: Sereno Sereno 17 55 1013 vento: Nord S/SE 7.4
14 Luglio 2020 21:00 tempo osservato: Sereno Sereno 20 45 1013 vento: Nord S/SE 7.4
14 Luglio 2020 20:30 tempo osservato: Sereno Sereno 21 43 1013 vento: Nord S/SE 9.3
14 Luglio 2020 20:00 tempo osservato: Sereno Sereno 22 37 1013 vento: Nord SE 9.3
14 Luglio 2020 19:30 tempo osservato: Sereno Sereno 23 33 1013 vento: Nord S/SE 9.3
14 Luglio 2020 19:00 tempo osservato: Sereno Sereno 24 33 1014 vento: Nord SE 13
14 Luglio 2020 18:00 tempo osservato: Sereno Sereno 24 29 1014 vento: Nord E/SE 9.3
14 Luglio 2020 17:30 tempo osservato: Sereno Sereno 25 29 1014 vento: Nord N 5.5
14 Luglio 2020 17:00 tempo osservato: Sereno Sereno 24 29 1014 vento: Nord N 7.4
14 Luglio 2020 16:30 tempo osservato: Sereno Sereno 24 29 1015 vento: Nord E 16.7
14 Luglio 2020 16:00 tempo osservato: Sereno Sereno 24 31 1015 vento: Nord N 9.3
14 Luglio 2020 15:30 tempo osservato: Sereno Sereno 24 31 1015 vento: Nord E 13
14 Luglio 2020 15:00 tempo osservato: Sereno Sereno 24 33 1015 vento: Nord N 9.3
14 Luglio 2020 14:30 tempo osservato: Sereno Sereno 23 35 1016 vento: Nord E 18.5
14 Luglio 2020 13:30 tempo osservato: Sereno Sereno 23 35 1016 vento: Nord N 7.4
14 Luglio 2020 13:00 tempo osservato: Sereno Sereno 22 35 1017 vento: Nord E/SE 14.8
14 Luglio 2020 12:30 tempo osservato: Sereno Sereno 21 37 1017 vento: Nord SE 11.1
14 Luglio 2020 12:00 tempo osservato: Sereno Sereno 21 37 1017 vento: Nord S 7.4
14 Luglio 2020 11:30 tempo osservato: Sereno Sereno 21 37 1018 vento: Nord SE 11.1
14 Luglio 2020 11:00 tempo osservato: Sereno Sereno 21 35 1018 vento: Nord E/SE 11.1
14 Luglio 2020 10:30 tempo osservato: Sereno Sereno 20 39 1018 vento: Nord E/SE 9.3
14 Luglio 2020 10:00 tempo osservato: Sereno Sereno 20 42 1018 vento: Nord S/SE 9.3
14 Luglio 2020 09:30 tempo osservato: Sereno Sereno 19 45 1018 vento: Nord S/SE 7.4
14 Luglio 2020 09:00 tempo osservato: Sereno Sereno 18 51 1019 vento: Nord SE 9.3